Time;durP1;ratioP1;P1;durP2;ratioP2;P2;SDS_P1;SDS_P2;PMS_P1;PMS_P2;Temp;Humidity;BMP_temperature;BMP_pressure;BME280_temperature;BME280_humidity;BME280_pressure;Samples;Min_cycle;Max_cycle;Signal;HPM_P1;HPM_P2
2023/05/10 00:00:37;;;;;;;9.40;6.70;;;;;;;7.06;65.74;98976.33;225488;1282;22547;-74
2023/05/10 00:06:04;;;;;;;8.60;6.60;;;;;;;6.97;66.29;98973.54;225525;1273;22539;-74
2023/05/10 00:11:10;;;;;;;9.30;7.00;;;;;;;6.89;66.51;98964.10;225495;1282;22524;-73
2023/05/10 00:16:12;;;;;;;8.60;6.40;;;;;;;6.81;66.27;98965.09;225527;1280;22535;-73
2023/05/10 00:21:34;;;;;;;8.70;6.50;;;;;;;6.74;66.52;98959.55;225519;1278;22555;-74
2023/05/10 00:27:04;;;;;;;8.50;6.30;;;;;;;6.68;67.07;98961.41;225533;1282;22571;-74
2023/05/10 00:32:15;;;;;;;8.00;6.00;;;;;;;6.61;67.18;98961.58;225487;1281;22540;-73
2023/05/10 00:37:23;;;;;;;9.90;6.70;;;;;;;6.55;67.29;98958.48;225493;1282;22679;-73
2023/05/10 00:42:42;;;;;;;8.50;6.50;;;;;;;6.50;67.54;98961.02;225576;1282;22619;-73
2023/05/10 00:47:54;;;;;;;7.80;6.30;;;;;;;6.41;67.49;98957.74;225534;1281;22558;-73
2023/05/10 00:53:17;;;;;;;8.80;6.80;;;;;;;6.32;67.90;98954.73;225517;1282;23067;-72
2023/05/10 00:58:28;;;;;;;9.90;6.60;;;;;;;6.26;67.82;98951.60;225449;1282;24258;-72
2023/05/10 01:03:37;;;;;;;8.90;6.50;;;;;;;6.18;67.93;98947.02;225520;1282;22625;-73
2023/05/10 01:08:46;;;;;;;7.90;6.40;;;;;;;6.12;68.36;98946.48;225551;1278;24394;-73
2023/05/10 01:14:10;;;;;;;9.90;6.70;;;;;;;6.05;68.18;98941.27;225595;1282;25389;-72
2023/05/10 01:19:34;;;;;;;8.10;6.20;;;;;;;5.99;68.49;98940.70;225443;1282;22567;-73
2023/05/10 01:25:06;;;;;;;8.20;6.40;;;;;;;5.92;68.62;98932.08;225534;1274;22558;-73
2023/05/10 01:30:42;;;;;;;8.60;6.70;;;;;;;5.83;68.42;98929.66;225575;1282;22544;-73
2023/05/10 01:36:02;;;;;;;;;;;;;;;;;;;;;
2023/05/10 01:41:47;;;;;;;8.50;6.70;;;;;;;5.65;68.99;98930.45;225604;1279;24328;-73
2023/05/10 01:47:25;;;;;;;9.50;6.20;;;;;;;5.59;69.30;98925.77;225585;1282;25327;-72
2023/05/10 01:52:52;;;;;;;8.40;6.30;;;;;;;5.58;69.47;98921.36;225526;1282;22551;-73
2023/05/10 01:58:15;;;;;;;;;;;;;;;;;;;;;
2023/05/10 02:03:58;;;;;;;;;;;;;;;;;;;;;
2023/05/10 02:09:15;;;;;;;10.80;6.30;;;;;;;5.44;69.76;98913.16;225553;1282;22531;-73
2023/05/10 02:14:54;;;;;;;10.80;7.70;;;;;;;5.38;70.18;98912.16;225567;1282;22527;-73
2023/05/10 02:20:19;;;;;;;9.40;6.70;;;;;;;5.32;70.22;98908.59;225441;1282;22537;-73
2023/05/10 02:25:47;;;;;;;10.00;7.20;;;;;;;5.27;70.54;98904.52;225563;1282;22561;-73
2023/05/10 02:30:55;;;;;;;9.70;6.80;;;;;;;5.23;70.56;98901.60;225505;1282;22683;-73
2023/05/10 02:36:03;;;;;;;10.30;7.20;;;;;;;5.19;70.75;98902.39;225625;1282;22545;-73
2023/05/10 02:41:12;;;;;;;9.80;6.80;;;;;;;5.15;70.85;98899.12;225424;1282;22652;-73
2023/05/10 02:46:23;;;;;;;9.40;6.70;;;;;;;5.12;71.13;98902.38;225535;1280;22550;-73
2023/05/10 02:51:34;;;;;;;11.60;7.20;;;;;;;5.12;71.19;98904.13;225575;1280;22551;-73
2023/05/10 02:56:49;;;;;;;9.80;6.40;;;;;;;5.08;71.24;98907.62;225423;1282;22946;-73
2023/05/10 03:02:03;;;;;;;9.10;6.50;;;;;;;5.05;71.50;98906.60;225632;1282;24491;-74
2023/05/10 03:07:09;;;;;;;9.10;7.50;;;;;;;5.02;71.73;98906.98;225675;1275;22547;-73
2023/05/10 03:12:42;;;;;;;9.90;7.00;;;;;;;5.02;71.77;98909.70;225521;1282;22548;-73
2023/05/10 03:18:14;;;;;;;10.30;7.80;;;;;;;5.00;71.79;98905.55;225597;1280;24917;-73
2023/05/10 03:23:23;;;;;;;9.00;7.00;;;;;;;5.01;72.02;98903.99;225527;1282;22528;-72
2023/05/10 03:28:50;;;;;;;11.30;7.30;;;;;;;5.02;72.02;98904.43;225598;1282;22701;-72
2023/05/10 03:34:04;;;;;;;10.20;6.70;;;;;;;5.08;72.22;98904.21;225570;1282;22590;-73
2023/05/10 03:39:19;;;;;;;11.20;7.40;;;;;;;5.29;72.20;98898.60;225591;1282;25395;-72
2023/05/10 03:44:34;;;;;;;9.10;7.50;;;;;;;5.42;72.08;98894.21;225523;1282;22612;-73
2023/05/10 03:49:39;;;;;;;9.00;7.70;;;;;;;5.52;72.07;98893.48;225486;1282;22582;-73
2023/05/10 03:55:18;;;;;;;10.90;7.60;;;;;;;5.63;72.11;98891.10;225172;1284;22549;-74
2023/05/10 04:00:57;;;;;;;8.70;7.20;;;;;;;5.77;72.16;98889.77;225175;1284;23017;-73
2023/05/10 04:06:10;;;;;;;10.80;7.10;;;;;;;5.88;72.12;98893.91;225150;1284;22543;-72
2023/05/10 04:11:16;;;;;;;10.00;7.50;;;;;;;5.98;71.75;98899.36;225218;1284;22547;-72
2023/05/10 04:16:32;;;;;;;9.40;7.20;;;;;;;6.08;71.90;98897.84;225219;1283;22561;-73
2023/05/10 04:21:40;;;;;;;11.00;7.40;;;;;;;6.17;71.82;98898.25;225219;1281;22594;-73
2023/05/10 04:26:45;;;;;;;10.70;8.00;;;;;;;6.29;71.77;98896.46;225547;1281;22540;-73
2023/05/10 04:31:55;;;;;;;12.70;7.80;;;;;;;6.42;71.84;98895.36;225489;1279;22565;-73
2023/05/10 04:37:00;;;;;;;11.00;7.80;;;;;;;6.61;72.11;98902.41;225625;1278;22546;-73
2023/05/10 04:42:05;;;;;;;12.40;8.10;;;;;;;6.77;71.94;98898.42;225567;1276;22531;-73
2023/05/10 04:47:08;;;;;;;11.60;7.90;;;;;;;6.95;71.80;98898.65;225533;1282;22527;-73
2023/05/10 04:52:19;;;;;;;10.60;7.30;;;;;;;7.13;71.51;98900.58;225526;1282;22581;-73
2023/05/10 04:57:26;;;;;;;9.20;7.00;;;;;;;7.33;71.40;98897.08;225484;1280;22547;-73
2023/05/10 05:02:42;;;;;;;10.50;7.70;;;;;;;7.54;71.36;98898.11;225531;1282;22553;-72
2023/05/10 05:07:48;;;;;;;10.10;7.70;;;;;;;7.80;71.05;98897.55;225604;1278;25109;-73
2023/05/10 05:12:56;;;;;;;12.60;7.70;;;;;;;8.03;70.76;98894.98;225546;1282;22554;-73
2023/05/10 05:18:03;;;;;;;11.80;7.00;;;;;;;8.21;70.43;98892.80;225463;1282;22579;-73
2023/05/10 05:23:20;;;;;;;9.80;6.60;;;;;;;8.41;70.43;98895.11;225522;1264;22557;-73
2023/05/10 05:28:37;;;;;;;7.90;6.80;;;;;;;8.63;70.40;98898.55;225537;1279;22536;-73
2023/05/10 05:33:39;;;;;;;12.60;6.60;;;;;;;8.84;69.72;98895.85;225622;1275;22589;-72
2023/05/10 05:38:51;;;;;;;16.10;7.10;;;;;;;9.05;68.83;98890.32;225503;1282;23081;-72
2023/05/10 05:43:53;;;;;;;10.60;6.80;;;;;;;9.31;68.84;98890.23;225477;1281;24119;-73
2023/05/10 05:48:58;;;;;;;9.40;6.50;;;;;;;9.55;68.58;98890.19;225523;1280;22554;-72
2023/05/10 05:54:04;;;;;;;8.40;5.90;;;;;;;9.85;68.14;98891.75;225319;1259;22564;-73
2023/05/10 05:59:15;;;;;;;10.90;6.10;;;;;;;10.17;67.54;98884.95;225209;1259;25332;-73
2023/05/10 06:04:29;;;;;;;8.10;5.70;;;;;;;10.48;66.70;98880.04;225439;1270;23405;-71
2023/05/10 06:09:34;;;;;;;9.00;6.10;;;;;;;10.80;66.29;98879.64;225149;1268;22581;-73
2023/05/10 06:14:37;;;;;;;7.30;5.50;;;;;;;11.14;65.60;98877.73;224889;1268;137618;-73
2023/05/10 06:19:42;;;;;;;9.30;5.70;;;;;;;11.36;65.17;98876.92;225290;1264;25398;-73
2023/05/10 06:24:48;;;;;;;8.60;5.50;;;;;;;11.56;65.22;98880.52;225308;1263;137564;-73
2023/05/10 06:29:51;;;;;;;5.70;4.40;;;;;;;11.83;64.35;98882.60;225110;1275;138106;-73
2023/05/10 06:35:22;;;;;;;11.00;4.30;;;;;;;12.11;63.23;98882.19;224946;1270;137720;-73
2023/05/10 06:40:24;;;;;;;6.90;4.40;;;;;;;12.42;62.69;98878.71;224852;1274;137907;-73
2023/05/10 06:45:34;;;;;;;6.10;4.30;;;;;;;12.68;62.01;98872.69;224877;1262;137643;-72
2023/05/10 06:50:50;;;;;;;6.20;4.20;;;;;;;12.96;61.29;98869.75;225043;1259;137612;-72
2023/05/10 06:55:53;;;;;;;6.50;4.30;;;;;;;13.22;60.91;98869.52;225218;1278;137550;-72
2023/05/10 07:01:26;;;;;;;5.90;4.00;;;;;;;13.45;60.64;98869.42;225247;1262;22556;-77
2023/05/10 07:06:28;;;;;;;6.10;3.80;;;;;;;13.73;59.95;98867.41;225040;1259;137266;-72
2023/05/10 07:11:38;;;;;;;5.40;4.00;;;;;;;13.98;59.32;98863.41;225144;1277;137942;-73
2023/05/10 07:16:44;;;;;;;5.10;3.70;;;;;;;14.23;58.13;98865.48;224752;1278;137573;-73
2023/05/10 07:21:50;;;;;;;4.50;3.50;;;;;;;14.44;57.40;98864.33;224912;1282;138149;-72
2023/05/10 07:26:53;;;;;;;6.20;3.30;;;;;;;14.65;57.15;98864.86;224869;1276;137590;-74
2023/05/10 07:31:58;;;;;;;5.40;3.40;;;;;;;14.85;56.80;98861.64;224901;1269;137618;-72
2023/05/10 07:37:01;;;;;;;5.50;3.40;;;;;;;15.06;56.35;98854.27;225022;1273;22609;-70
2023/05/10 07:42:03;;;;;;;4.00;3.20;;;;;;;15.22;56.11;98853.58;224901;1275;138830;-72
2023/05/10 07:47:08;;;;;;;5.00;3.40;;;;;;;15.38;55.67;98853.95;224991;1263;137794;-70
2023/05/10 07:52:10;;;;;;;5.00;2.70;;;;;;;15.55;55.56;98854.56;225002;1275;137575;-71
2023/05/10 07:57:15;;;;;;;7.30;3.30;;;;;;;15.73;55.25;98852.70;225131;1270;137567;-70
2023/05/10 08:02:17;;;;;;;5.00;2.90;;;;;;;15.89;54.59;98852.21;225179;1275;137624;-70
2023/05/10 08:07:28;;;;;;;5.40;3.40;;;;;;;15.97;54.16;98850.75;225156;1268;22550;-70
2023/05/10 08:12:30;;;;;;;2.90;2.60;;;;;;;16.05;53.96;98844.95;225007;1282;137200;-71
2023/05/10 08:17:39;;;;;;;3.10;2.80;;;;;;;16.16;53.72;98847.38;224953;1278;137658;-72
2023/05/10 08:22:41;;;;;;;5.20;3.30;;;;;;;16.32;53.64;98847.84;224949;1262;137560;-71
2023/05/10 08:27:44;;;;;;;7.40;4.20;;;;;;;16.54;53.78;98845.25;224937;1268;137528;-71
2023/05/10 08:32:46;;;;;;;3.80;3.10;;;;;;;16.73;53.37;98842.77;224872;1271;137770;-72
2023/05/10 08:37:51;;;;;;;4.70;3.20;;;;;;;16.81;52.96;98842.81;225037;1275;22547;-72
2023/05/10 08:43:09;;;;;;;3.70;2.30;;;;;;;16.93;52.80;98833.86;225208;1275;25912;-72
2023/05/10 08:48:11;;;;;;;6.30;2.70;;;;;;;17.08;52.47;98836.81;225272;1271;138167;-72
2023/05/10 08:53:21;;;;;;;4.40;2.70;;;;;;;17.28;52.64;98835.55;225152;1277;137388;-70
2023/05/10 08:58:23;;;;;;;7.60;2.80;;;;;;;17.48;52.36;98833.14;225277;1275;137576;-70
2023/05/10 09:03:28;;;;;;;3.60;2.20;;;;;;;17.68;51.93;98832.66;225224;1278;137840;-71
2023/05/10 09:08:31;;;;;;;3.00;2.50;;;;;;;17.74;50.76;98833.59;225143;1268;137566;-71
2023/05/10 09:13:41;;;;;;;3.70;2.80;;;;;;;17.79;50.44;98828.77;225258;1275;22473;-74
2023/05/10 09:18:43;;;;;;;3.20;2.90;;;;;;;17.95;50.10;98827.36;225171;1259;137201;-72
2023/05/10 09:23:49;;;;;;;3.30;2.50;;;;;;;18.15;50.40;98824.02;225230;1278;137533;-75
2023/05/10 09:29:03;;;;;;;5.60;2.90;;;;;;;18.38;50.00;98819.52;225175;1275;137595;-73
2023/05/10 09:34:13;;;;;;;4.40;2.60;;;;;;;18.66;49.96;98818.66;225186;1263;137676;-72
2023/05/10 09:39:38;;;;;;;3.90;2.50;;;;;;;18.93;49.31;98822.27;225049;1269;137590;-73
2023/05/10 09:44:46;;;;;;;3.30;2.30;;;;;;;19.35;48.98;98827.54;224951;1275;137560;-72
2023/05/10 09:50:02;;;;;;;3.20;2.30;;;;;;;19.60;48.05;98826.02;224953;1275;137564;-73
2023/05/10 09:55:08;;;;;;;3.60;2.40;;;;;;;19.37;47.37;98822.46;225275;1282;25339;-73
2023/05/10 10:00:23;;;;;;;4.40;2.70;;;;;;;19.15;47.14;98815.20;225191;1275;137647;-71
2023/05/10 10:05:29;;;;;;;3.90;2.70;;;;;;;18.96;47.25;98817.45;225177;1278;137469;-71
2023/05/10 10:10:36;;;;;;;4.00;2.40;;;;;;;18.86;47.45;98812.86;225111;1275;137763;-70
2023/05/10 10:15:50;;;;;;;4.00;2.60;;;;;;;18.79;47.59;98806.86;225046;1281;137685;-71
2023/05/10 10:20:59;;;;;;;3.60;2.20;;;;;;;19.04;47.78;98805.73;224867;1276;137614;-71
2023/05/10 10:26:06;;;;;;;4.00;2.60;;;;;;;19.53;47.66;98801.30;225033;1263;138141;-71
2023/05/10 10:31:44;;;;;;;3.60;1.90;;;;;;;19.87;46.77;98787.15;225119;1277;22543;-71
2023/05/10 10:37:14;;;;;;;3.60;2.30;;;;;;;20.21;47.26;98792.67;224875;1275;207033;-71
2023/05/10 10:43:16;;;;;;;8.40;2.80;;;;;;;20.28;46.31;98796.95;225016;1276;137484;-71
2023/05/10 10:48:35;;;;;;;3.00;2.50;;;;;;;19.99;46.22;98788.94;225033;1277;137413;-71
2023/05/10 10:53:58;;;;;;;3.50;2.50;;;;;;;19.95;45.89;98784.27;225087;1283;137450;-71
2023/05/10 10:59:08;;;;;;;3.10;2.80;;;;;;;20.21;46.01;98779.54;225132;1279;137873;-70
2023/05/10 11:04:46;;;;;;;2.90;2.70;;;;;;;20.12;45.25;98779.59;225062;1280;137576;-70
2023/05/10 11:09:58;;;;;;;4.00;2.80;;;;;;;20.00;45.73;98780.89;225090;1281;138529;-70
2023/05/10 11:15:14;;;;;;;4.70;2.70;;;;;;;20.35;46.01;98777.73;225026;1276;137655;-71
2023/05/10 11:20:40;;;;;;;3.20;2.30;;;;;;;20.82;45.82;98759.81;225005;1262;137653;-71
2023/05/10 11:25:44;;;;;;;3.60;2.50;;;;;;;20.93;44.79;98759.23;225157;1275;22556;-71
2023/05/10 11:30:51;;;;;;;4.40;2.40;;;;;;;20.90;44.92;98752.58;225072;1275;137219;-71
2023/05/10 11:35:58;;;;;;;4.70;2.60;;;;;;;20.98;44.83;98750.66;225066;1271;137433;-71
2023/05/10 11:41:26;;;;;;;3.70;2.90;;;;;;;21.08;44.85;98746.33;224990;1278;138097;-70
2023/05/10 11:46:40;;;;;;;3.40;2.90;;;;;;;20.91;44.13;98742.76;225083;1283;137694;-75
2023/05/10 11:51:52;;;;;;;3.90;3.00;;;;;;;20.95;44.56;98736.13;225103;1280;137563;-71
2023/05/10 11:57:05;;;;;;;4.60;2.60;;;;;;;20.91;44.28;98743.42;224974;1281;137699;-71
2023/05/10 12:02:13;;;;;;;5.10;2.70;;;;;;;20.98;44.11;98744.38;225135;1263;137676;-71
2023/05/10 12:07:21;;;;;;;2.70;2.40;;;;;;;21.10;44.18;98742.11;225292;1268;22571;-70
2023/05/10 12:12:48;;;;;;;7.20;3.10;;;;;;;21.11;43.88;98744.21;225187;1280;137282;-68
2023/05/10 12:18:01;;;;;;;2.70;2.00;;;;;;;21.17;43.73;98745.30;224986;1282;137486;-69
2023/05/10 12:23:15;;;;;;;3.90;2.20;;;;;;;21.24;43.58;98739.55;225152;1283;137731;-68
2023/05/10 12:28:30;;;;;;;2.70;2.50;;;;;;;21.37;43.65;98740.98;225129;1281;138069;-69
2023/05/10 12:33:45;;;;;;;4.50;2.90;;;;;;;21.62;43.14;98747.34;225179;1275;137558;-70
2023/05/10 12:39:02;;;;;;;3.90;2.50;;;;;;;21.55;43.11;98739.54;225308;1275;137604;-69
2023/05/10 12:44:22;;;;;;;3.80;2.60;;;;;;;21.50;43.11;98736.94;225236;1282;138001;-68
2023/05/10 12:49:30;;;;;;;2.30;2.10;;;;;;;21.46;42.93;98732.09;225290;1282;22578;-70
2023/05/10 12:54:51;;;;;;;3.80;2.10;;;;;;;21.55;42.65;98726.69;225321;1282;137970;-67
2023/05/10 12:59:57;;;;;;;3.60;2.90;;;;;;;21.66;42.30;98721.81;225188;1269;138078;-68
2023/05/10 13:05:02;;;;;;;3.40;2.50;;;;;;;21.86;42.65;98720.61;225236;1279;137536;-69
2023/05/10 13:10:06;;;;;;;2.70;2.50;;;;;;;22.03;42.36;98710.33;225268;1275;137674;-71
2023/05/10 13:15:29;;;;;;;2.40;2.30;;;;;;;22.12;41.53;98716.11;224854;1271;137748;-72
2023/05/10 13:20:31;;;;;;;3.60;2.40;;;;;;;22.05;41.88;98714.95;224849;1283;137798;-69
2023/05/10 13:25:34;;;;;;;2.50;2.30;;;;;;;21.92;41.47;98705.84;224708;1277;22580;-70
2023/05/10 13:30:36;;;;;;;3.00;2.60;;;;;;;21.69;42.08;98705.95;224646;1265;137321;-70
2023/05/10 13:35:39;;;;;;;2.80;2.60;;;;;;;21.59;42.00;98703.15;224690;1265;137532;-71
2023/05/10 13:40:41;;;;;;;3.60;2.30;;;;;;;21.53;42.33;98701.46;224773;1280;137692;-69
2023/05/10 13:45:47;;;;;;;2.70;2.50;;;;;;;21.57;41.92;98695.08;224817;1268;137585;-74
2023/05/10 13:50:52;;;;;;;2.80;2.10;;;;;;;21.44;41.73;98692.11;225155;1259;138036;-72
2023/05/10 13:56:08;;;;;;;2.10;1.90;;;;;;;21.26;42.06;98691.68;225288;1275;137573;-72
2023/05/10 14:01:16;;;;;;;3.40;2.20;;;;;;;21.09;42.44;98683.16;225121;1275;22574;-72
2023/05/10 14:06:21;;;;;;;2.70;2.20;;;;;;;20.91;42.46;98675.08;224789;1275;22914;-73
2023/05/10 14:11:24;;;;;;;2.80;2.20;;;;;;;20.70;42.83;98679.10;224796;1275;22646;-72
2023/05/10 14:16:27;;;;;;;3.60;2.40;;;;;;;20.69;43.17;98676.77;225116;1281;22947;-73
2023/05/10 14:21:30;;;;;;;4.90;2.40;;;;;;;20.60;43.15;98675.19;225119;1281;22546;-72
2023/05/10 14:26:41;;;;;;;3.10;2.10;;;;;;;20.36;42.53;98668.80;225379;1282;22566;-72
2023/05/10 14:31:43;;;;;;;4.00;2.50;;;;;;;20.10;42.74;98667.27;225444;1276;22561;-72
2023/05/10 14:36:49;;;;;;;3.90;2.30;;;;;;;19.90;43.17;98665.55;225447;1275;22537;-72
2023/05/10 14:41:52;;;;;;;2.90;2.50;;;;;;;19.76;43.32;98666.02;225570;1275;22548;-72
2023/05/10 14:46:57;;;;;;;4.00;2.80;;;;;;;19.67;43.67;98663.08;225523;1278;22580;-72
2023/05/10 14:52:00;;;;;;;4.80;2.80;;;;;;;19.79;44.01;98657.59;225533;1278;22543;-72
2023/05/10 14:57:03;;;;;;;4.50;2.20;;;;;;;19.85;43.92;98658.32;225562;1281;22560;-72
2023/05/10 15:02:11;;;;;;;4.60;2.80;;;;;;;19.73;43.67;98660.64;225467;1281;22557;-72
2023/05/10 15:07:16;;;;;;;3.90;2.60;;;;;;;19.57;43.87;98658.50;225524;1278;22737;-72
2023/05/10 15:12:18;;;;;;;2.30;2.10;;;;;;;19.37;44.28;98661.00;225536;1281;22546;-72
2023/05/10 15:17:24;;;;;;;4.60;2.30;;;;;;;19.15;44.59;98664.83;225446;1281;22568;-72
2023/05/10 15:22:28;;;;;;;3.80;2.00;;;;;;;19.08;44.57;98661.56;225539;1275;22541;-72
2023/05/10 15:27:38;;;;;;;2.80;1.80;;;;;;;19.24;44.96;98656.64;225521;1281;22544;-72
2023/05/10 15:32:51;;;;;;;4.00;2.90;;;;;;;19.37;44.73;98662.44;225513;1282;23766;-72
2023/05/10 15:37:57;;;;;;;4.10;2.00;;;;;;;19.45;44.64;98657.84;225560;1259;25313;-72
2023/05/10 15:43:00;;;;;;;2.70;2.00;;;;;;;19.52;44.49;98658.92;225568;1278;22572;-72
2023/05/10 15:48:03;;;;;;;2.60;2.20;;;;;;;19.56;44.31;98659.10;225513;1280;22539;-72
2023/05/10 15:53:10;;;;;;;5.40;2.30;;;;;;;19.59;44.28;98662.97;225598;1278;22552;-73
2023/05/10 15:58:26;;;;;;;2.80;2.00;;;;;;;19.61;44.40;98661.59;225587;1281;22539;-72
2023/05/10 16:03:29;;;;;;;3.20;2.30;;;;;;;19.68;44.25;98660.04;225562;1278;23887;-73
2023/05/10 16:08:43;;;;;;;2.40;2.10;;;;;;;19.88;44.31;98658.46;225555;1281;25407;-72
2023/05/10 16:13:46;;;;;;;1.70;1.40;;;;;;;20.07;44.00;98655.87;225529;1281;22556;-73
2023/05/10 16:18:57;;;;;;;2.30;1.90;;;;;;;20.04;43.66;98660.79;225609;1279;22546;-72
2023/05/10 16:24:00;;;;;;;2.40;1.90;;;;;;;19.94;43.81;98661.05;225570;1282;22584;-72
2023/05/10 16:29:20;;;;;;;3.20;1.80;;;;;;;19.90;44.20;98664.52;225517;1281;22549;-72
2023/05/10 16:34:23;;;;;;;3.30;2.30;;;;;;;19.82;44.08;98662.63;225458;1281;22545;-72
2023/05/10 16:39:26;;;;;;;2.10;1.90;;;;;;;19.76;44.17;98663.35;225563;1278;22585;-72
2023/05/10 16:44:29;;;;;;;11.30;10.20;;;;;;;19.65;44.23;98663.87;225544;1278;22674;-73
2023/05/10 16:49:32;;;;;;;5.10;4.10;;;;;;;19.52;44.53;98668.45;225611;1279;22605;-73
2023/05/10 16:54:37;;;;;;;4.10;2.60;;;;;;;19.31;44.57;98668.70;225560;1278;22591;-73
2023/05/10 16:59:39;;;;;;;4.50;2.90;;;;;;;19.07;44.36;98673.23;225567;1272;22559;-73
2023/05/10 17:04:42;;;;;;;4.40;3.00;;;;;;;18.84;44.52;98677.36;225561;1282;22530;-73
2023/05/10 17:09:45;;;;;;;4.30;3.20;;;;;;;18.62;44.74;98678.14;225541;1281;25342;-73
2023/05/10 17:14:48;;;;;;;4.20;3.40;;;;;;;18.40;45.09;98682.91;225595;1278;22544;-73
2023/05/10 17:19:51;;;;;;;6.90;4.40;;;;;;;18.18;45.31;98681.13;225584;1282;25271;-72
2023/05/10 17:24:55;;;;;;;5.10;3.50;;;;;;;18.01;45.57;98685.30;225590;1281;22554;-72
2023/05/10 17:30:02;;;;;;;7.70;3.90;;;;;;;17.83;45.88;98685.95;225599;1282;23052;-72
2023/05/10 17:35:05;;;;;;;7.50;3.90;;;;;;;17.63;46.21;98688.35;225512;1281;22535;-72
2023/05/10 17:40:09;;;;;;;6.00;4.00;;;;;;;17.40;46.66;98693.30;225449;1282;22540;-72
2023/05/10 17:45:11;;;;;;;6.60;4.10;;;;;;;17.18;47.30;98696.45;225629;1279;22539;-72
2023/05/10 17:50:14;;;;;;;5.40;3.60;;;;;;;16.96;47.29;98698.02;225516;1281;22543;-72
2023/05/10 17:55:17;;;;;;;5.60;3.60;;;;;;;16.77;47.62;98698.84;225564;1282;25246;-73
2023/05/10 18:00:20;;;;;;;6.80;3.70;;;;;;;16.59;47.83;98703.77;225506;1279;26662;-71
2023/05/10 18:05:22;;;;;;;7.30;3.80;;;;;;;16.43;48.26;98710.92;225502;1281;22542;-72
2023/05/10 18:10:28;;;;;;;7.00;3.80;;;;;;;16.27;48.42;98717.48;225472;1281;22551;-74
2023/05/10 18:15:32;;;;;;;3.60;3.00;;;;;;;16.10;48.69;98720.60;225545;1282;22547;-71
2023/05/10 18:20:34;;;;;;;3.00;2.50;;;;;;;16.00;48.95;98722.75;225553;1281;22583;-71
2023/05/10 18:25:37;;;;;;;4.80;2.80;;;;;;;15.89;49.21;98729.69;225496;1282;22555;-72
2023/05/10 18:30:43;;;;;;;4.50;2.80;;;;;;;15.81;49.40;98736.14;225383;1281;22548;-72
2023/05/10 18:35:46;;;;;;;5.40;3.40;;;;;;;15.72;49.58;98739.80;225522;1279;22569;-72
2023/05/10 18:40:49;;;;;;;5.50;4.10;;;;;;;15.56;50.09;98744.39;225446;1282;22564;-72
2023/05/10 18:45:52;;;;;;;8.70;5.60;;;;;;;15.33;50.55;98751.07;225542;1281;22555;-72
2023/05/10 18:51:03;;;;;;;10.30;6.10;;;;;;;15.12;50.92;98756.90;225443;1281;22543;-72
2023/05/10 18:56:06;;;;;;;8.00;5.70;;;;;;;14.98;51.72;98767.66;225562;1282;22558;-73
2023/05/10 19:01:15;;;;;;;6.90;4.30;;;;;;;14.85;52.03;98773.52;225522;1281;22551;-72
2023/05/10 19:06:17;;;;;;;5.20;4.30;;;;;;;14.70;52.11;98779.15;225504;1281;22546;-72
2023/05/10 19:11:23;;;;;;;5.20;3.70;;;;;;;14.56;52.68;98782.59;225561;1281;25341;-71
2023/05/10 19:16:26;;;;;;;7.80;4.30;;;;;;;14.46;53.21;98783.88;225526;1282;22655;-72
2023/05/10 19:21:31;;;;;;;4.60;3.70;;;;;;;14.36;53.30;98785.91;225571;1278;24964;-72
2023/05/10 19:26:37;;;;;;;4.80;3.70;;;;;;;14.22;53.40;98790.09;225508;1282;22558;-72
2023/05/10 19:31:43;;;;;;;4.90;4.00;;;;;;;14.09;53.97;98794.55;225504;1282;22531;-72
2023/05/10 19:36:49;;;;;;;7.10;4.50;;;;;;;13.97;54.26;98797.34;225451;1276;22529;-72
2023/05/10 19:41:54;;;;;;;5.80;4.00;;;;;;;13.87;54.41;98799.93;225447;1278;23070;-72
2023/05/10 19:46:57;;;;;;;5.60;4.10;;;;;;;13.78;54.61;98804.25;225504;1278;22565;-72
2023/05/10 19:52:02;;;;;;;5.90;4.10;;;;;;;13.72;54.62;98804.27;225538;1282;24264;-72
2023/05/10 19:57:16;;;;;;;5.00;4.40;;;;;;;13.65;54.75;98803.17;225521;1282;22543;-72
2023/05/10 20:02:18;;;;;;;6.70;3.50;;;;;;;13.60;54.96;98810.63;225493;1282;22540;-72
2023/05/10 20:07:21;;;;;;;6.70;3.60;;;;;;;13.56;54.94;98810.86;225554;1278;22534;-72
2023/05/10 20:12:29;;;;;;;4.90;3.40;;;;;;;13.54;54.91;98813.80;225513;1282;25325;-73
2023/05/10 20:17:37;;;;;;;4.60;3.70;;;;;;;13.45;54.84;98814.80;225535;1282;22537;-72
2023/05/10 20:22:39;;;;;;;6.40;3.90;;;;;;;13.33;55.11;98818.64;225494;1281;22548;-72
2023/05/10 20:27:44;;;;;;;4.90;3.50;;;;;;;13.18;55.13;98815.44;225543;1282;22583;-72
2023/05/10 20:32:47;;;;;;;4.00;3.50;;;;;;;13.00;55.21;98819.94;225525;1282;22667;-72
2023/05/10 20:37:49;;;;;;;5.60;3.30;;;;;;;12.83;55.41;98820.77;225406;1281;22539;-73
2023/05/10 20:42:52;;;;;;;6.30;3.50;;;;;;;12.65;55.79;98822.52;225473;1282;22558;-71
2023/05/10 20:47:55;;;;;;;6.40;3.50;;;;;;;12.51;56.01;98830.64;225478;1281;22551;-72
2023/05/10 20:52:57;;;;;;;8.10;3.70;;;;;;;12.36;56.24;98833.55;225483;1280;22620;-71
2023/05/10 20:57:59;;;;;;;5.40;3.90;;;;;;;12.23;56.52;98834.92;225508;1282;22569;-72
2023/05/10 21:03:02;;;;;;;5.60;4.10;;;;;;;12.10;56.68;98832.55;225561;1282;22551;-72
2023/05/10 21:08:05;;;;;;;5.40;4.20;;;;;;;11.98;56.85;98837.95;225478;1282;22656;-72
2023/05/10 21:13:12;;;;;;;6.40;4.50;;;;;;;11.86;57.28;98839.88;225570;1282;22534;-72
2023/05/10 21:18:14;;;;;;;5.90;4.30;;;;;;;11.73;57.59;98838.34;225586;1281;22967;-71
2023/05/10 21:23:16;;;;;;;8.40;4.50;;;;;;;11.60;57.67;98839.99;225531;1280;22582;-72
2023/05/10 21:28:18;;;;;;;5.30;3.70;;;;;;;11.47;57.61;98834.94;225599;1282;22567;-71
2023/05/10 21:33:23;;;;;;;6.90;4.80;;;;;;;11.34;57.79;98839.42;225553;1282;22648;-72
2023/05/10 21:38:27;;;;;;;6.70;4.50;;;;;;;11.20;57.78;98837.27;225583;1280;25331;-71
2023/05/10 21:43:30;;;;;;;8.60;4.70;;;;;;;11.07;58.17;98843.27;225590;1276;22547;-72
2023/05/10 21:48:38;;;;;;;5.10;4.10;;;;;;;10.95;58.25;98844.29;225467;1282;22539;-72
2023/05/10 21:53:43;;;;;;;6.70;4.70;;;;;;;10.83;58.83;98848.77;225508;1282;22561;-72
2023/05/10 21:58:48;;;;;;;5.30;4.00;;;;;;;10.73;58.99;98848.21;225502;1280;22679;-71
2023/05/10 22:03:51;;;;;;;5.50;4.40;;;;;;;10.62;59.13;98853.66;225539;1275;22554;-71
2023/05/10 22:08:53;;;;;;;5.30;4.00;;;;;;;10.48;59.45;98850.55;225538;1276;22544;-71
2023/05/10 22:13:58;;;;;;;5.50;4.00;;;;;;;10.37;59.45;98855.48;225565;1282;22552;-71
2023/05/10 22:19:01;;;;;;;6.70;4.00;;;;;;;10.25;59.51;98860.05;225512;1270;22543;-71
2023/05/10 22:24:04;;;;;;;7.30;4.20;;;;;;;10.15;59.63;98871.10;225609;1280;22557;-72
2023/05/10 22:29:09;;;;;;;6.70;4.10;;;;;;;10.05;59.70;98877.21;225590;1280;25432;-72
2023/05/10 22:34:14;;;;;;;6.70;3.90;;;;;;;9.94;59.92;98875.31;225513;1282;25285;-72
2023/05/10 22:39:19;;;;;;;6.90;4.10;;;;;;;9.85;60.17;98878.02;225370;1277;266761;-72
2023/05/10 22:44:22;;;;;;;5.80;3.80;;;;;;;9.75;60.11;98878.09;225527;1282;25331;-72
2023/05/10 22:49:28;;;;;;;4.80;3.90;;;;;;;9.68;60.07;98880.86;225658;1279;24277;-72
2023/05/10 22:54:33;;;;;;;9.10;4.80;;;;;;;9.66;60.35;98879.27;225617;1280;22531;-72
2023/05/10 22:59:43;;;;;;;6.20;3.70;;;;;;;9.63;60.57;98888.05;225634;1282;22539;-71
2023/05/10 23:04:46;;;;;;;6.60;4.00;;;;;;;9.63;60.68;98888.18;225585;1282;22545;-72
2023/05/10 23:09:49;;;;;;;5.80;4.30;;;;;;;9.63;60.54;98891.33;225477;1280;22559;-72
2023/05/10 23:14:55;;;;;;;6.70;4.40;;;;;;;9.62;60.94;98893.03;225600;1282;22848;-71
2023/05/10 23:19:57;;;;;;;6.30;4.30;;;;;;;9.60;60.73;98889.78;225559;1280;22539;-72
2023/05/10 23:25:07;;;;;;;5.80;4.60;;;;;;;9.58;61.21;98888.25;225592;1279;22554;-71
2023/05/10 23:30:10;;;;;;;5.60;4.50;;;;;;;9.55;61.17;98888.60;225470;1282;22540;-71
2023/05/10 23:35:15;;;;;;;5.10;4.20;;;;;;;9.52;61.32;98891.91;225506;1280;24259;-71
2023/05/10 23:40:18;;;;;;;6.70;4.80;;;;;;;9.49;61.24;98887.63;225568;1278;22518;-71
2023/05/10 23:45:21;;;;;;;7.70;4.40;;;;;;;9.49;61.59;98884.02;225484;1280;22548;-71
2023/05/10 23:50:48;;;;;;;8.50;4.80;;;;;;;9.49;62.26;98889.98;225350;1283;22914;-71
2023/05/10 23:55:51;;;;;;;6.60;4.40;;;;;;;9.50;62.01;98893.71;225354;1283;22568;-71
